Teruhou Maru No.22 — JD3202 — position and weather

sailwx.info

Track history (hours):
 
Tides and Currents Weather Stations Pressure Air Temp Water Temp Dewpoint Dewpoint Depression Visibility Wind Speed Wind Dir Waves Ship Positions

Teruhou Maru No.22

Last reported at 2017-Nov-14 14:18 UTC. Time now 2017-Nov-20 21:28 UTC.
Position N 34°55' E 139°46'.

Length 76 m; draft 5 m.

Type: Cargo ship. MMSI: 431002552.

Date/timePositionNaut miles runAvg speedWind from/ knotsBaromVisibWave heightAir tempDewpointWater temp
2017-Nov-14 14:18N 34°55' E 139°46'311.9
2017-Nov-14 14:00N 34°58' E 139°44'713.1
2017-Nov-14 13:30N 35°04' E 139°45'713.6
2017-Nov-14 13:00N 35°11' E 139°46'612.6
2017-Nov-14 12:30N 35°18' E 139°45'612.3
2017-Nov-14 12:00N 35°23' E 139°43'712.7
2017-Nov-14 11:29N 35°28' E 139°48'6 0.2
2017-Nov-13 02:00N 35°27' E 139°41'0 0.0
2017-Nov-13 01:30N 35°27' E 139°41'0 0.0
2017-Nov-13 01:00N 35°27' E 139°41'0 0.0
2017-Nov-13 00:30N 35°27' E 139°41'0 0.0
2017-Nov-13 00:00N 35°27' E 139°41'0 0.0
2017-Nov-12 23:30N 35°27' E 139°41'0 0.0
2017-Nov-12 23:01N 35°27' E 139°41'1 2.4
2017-Nov-12 22:30N 35°27' E 139°42'0 1.0
2017-Nov-12 21:59N 35°26' E 139°42'0 0.0
2017-Nov-12 21:29N 35°26' E 139°42'0 0.0
2017-Nov-12 20:59N 35°26' E 139°42'0 0.0
2017-Nov-12 20:29N 35°26' E 139°42'0 0.0
2017-Nov-12 19:59N 35°26' E 139°42'0 0.0
2017-Nov-12 19:29N 35°26' E 139°42'0 0.0
2017-Nov-12 18:59N 35°26' E 139°42'0 0.0
2017-Nov-12 18:29N 35°26' E 139°42'0 0.0
2017-Nov-12 17:59N 35°26' E 139°42'0 0.0
2017-Nov-12 17:29N 35°26' E 139°42'0 0.0
2017-Nov-12 16:59N 35°26' E 139°42'0 0.0
2017-Nov-12 16:29N 35°26' E 139°42'0 0.0
2017-Nov-12 15:59N 35°26' E 139°42'0 0.0
2017-Nov-12 15:29N 35°26' E 139°42'0 0.0
2017-Nov-12 14:59N 35°26' E 139°42'0 0.0
2017-Nov-12 14:29N 35°27' E 139°42'0 0.1
2017-Nov-12 13:59N 35°27' E 139°42'0 0.1
2017-Nov-12 13:29N 35°27' E 139°42'2 4.2
2017-Nov-12 13:00N 35°25' E 139°43'611.9
2017-Nov-12 12:30N 35°19' E 139°44'611.4
2017-Nov-12 12:00N 35°13' E 139°47'611.6
2017-Nov-12 11:30N 35°08' E 139°44'611.8
2017-Nov-12 11:00N 35°04' E 139°40'237 9.8
2017-Nov-11 10:43N 34°07' E 135°00'312.9
2017-Nov-11 10:30N 34°10' E 134°60'1812.1
2017-Nov-11 09:01N 34°27' E 135°05'112.3
2017-Nov-11 08:57N 34°28' E 135°06'612.5
2017-Nov-11 08:30N 34°33' E 135°10'612.6
2017-Nov-11 08:00N 34°37' E 135°15'5 9.5
2017-Nov-11 07:30N 34°42' E 135°15'0 0.1
2017-Nov-11 07:00N 34°42' E 135°15'0 0.0
2017-Nov-11 06:30N 34°42' E 135°15'0 0.0
2017-Nov-11 06:00N 34°42' E 135°15'0 0.0
2017-Nov-11 05:30N 34°42' E 135°15'0 0.0
2017-Nov-11 04:51N 34°42' E 135°15'0 0.0
2017-Nov-11 04:21N 34°42' E 135°15'0 0.0
2017-Nov-11 03:45N 34°42' E 135°15'0 0.0
2017-Nov-11 03:21N 34°42' E 135°15'0 0.0
2017-Nov-11 02:57N 34°42' E 135°15'0 0.0
2017-Nov-11 02:27N 34°42' E 135°15'0 0.0
2017-Nov-11 01:57N 34°42' E 135°15'0 0.0
2017-Nov-11 01:27N 34°42' E 135°15'0 0.0
2017-Nov-11 00:57N 34°42' E 135°15'0 0.0
2017-Nov-11 00:27N 34°42' E 135°15'0 0.0
2017-Nov-10 23:57N 34°42' E 135°15'0 0.0
2017-Nov-10 23:21N 34°42' E 135°15'0 0.0
2017-Nov-10 22:57N 34°42' E 135°15'0 0.0
2017-Nov-10 22:27N 34°42' E 135°15'0 0.0
2017-Nov-10 21:57N 34°42' E 135°15'0 0.0
2017-Nov-10 21:27N 34°42' E 135°15'0 0.0
2017-Nov-10 20:57N 34°42' E 135°15'0 0.0
2017-Nov-10 20:27N 34°42' E 135°15'0 0.0
2017-Nov-10 19:51N 34°42' E 135°15'0 0.0
2017-Nov-10 19:27N 34°42' E 135°15'0 0.0
2017-Nov-10 18:57N 34°42' E 135°15'0 0.0
2017-Nov-10 18:27N 34°42' E 135°15'0 0.0
2017-Nov-10 17:57N 34°42' E 135°15'0 0.0
2017-Nov-10 17:27N 34°42' E 135°15'0 0.0
2017-Nov-10 16:57N 34°42' E 135°15'0 0.0
2017-Nov-10 16:27N 34°42' E 135°15'0 0.0
2017-Nov-10 15:57N 34°42' E 135°15'0 0.0
2017-Nov-10 15:27N 34°42' E 135°15'0 0.0
2017-Nov-10 14:57N 34°42' E 135°15'0 0.0
2017-Nov-10 14:27N 34°42' E 135°15'0 0.0
2017-Nov-10 13:57N 34°42' E 135°15'0 0.0
2017-Nov-10 13:21N 34°42' E 135°15'0 0.0
2017-Nov-10 12:57N 34°42' E 135°15'0 0.0
2017-Nov-10 12:27N 34°42' E 135°15'0 0.0
2017-Nov-10 11:57N 34°42' E 135°15'0 0.0
2017-Nov-10 11:27N 34°42' E 135°15'0 0.0
2017-Nov-10 10:57N 34°42' E 135°15'0 0.0
2017-Nov-10 10:15N 34°42' E 135°15'0 0.0
2017-Nov-10 09:57N 34°42' E 135°15'0 0.0
2017-Nov-10 09:27N 34°42' E 135°15'0 0.0
2017-Nov-10 08:51N 34°42' E 135°15'0 0.0
2017-Nov-10 08:21N 34°42' E 135°15'0 0.0
2017-Nov-10 07:57N 34°42' E 135°15'0 0.0
2017-Nov-10 07:27N 34°42' E 135°15'0 0.0
2017-Nov-10 06:57N 34°42' E 135°15'0 0.0
2017-Nov-10 06:27N 34°42' E 135°15'0 0.0
2017-Nov-10 05:51N 34°42' E 135°15'0 0.4
2017-Nov-10 05:30N 34°42' E 135°15'4 8.8
2017-Nov-10 05:00N 34°39' E 135°19'510.9
2017-Nov-10 04:30N 34°40' E 135°25'0 0.5
2017-Nov-10 03:59N 34°40' E 135°25'0 0.0
2017-Nov-10 03:30N 34°40' E 135°25'0 0.0
2017-Nov-10 03:00N 34°40' E 135°25'0 0.0
2017-Nov-10 02:30N 34°40' E 135°25'0 0.0
2017-Nov-10 02:00N 34°40' E 135°25'0 0.0
2017-Nov-10 01:30N 34°40' E 135°25'0 0.0
2017-Nov-10 01:00N 34°40' E 135°25'0 0.0
2017-Nov-10 00:30N 34°40' E 135°25'0 0.0
2017-Nov-10 00:00N 34°40' E 135°25'0 0.0
2017-Nov-09 23:30N 34°40' E 135°25'0 0.0
2017-Nov-09 23:00N 34°40' E 135°25'0 0.0
2017-Nov-09 22:30N 34°40' E 135°25'2 4.3
2017-Nov-09 22:00N 34°39' E 135°24'1 2.5
2017-Nov-09 21:25N 34°38' E 135°23'0 0.0
2017-Nov-09 20:55N 34°38' E 135°23'0 0.0
2017-Nov-09 20:07N 34°37' E 135°23'0 0.0
2017-Nov-09 19:43N 34°37' E 135°23'0 0.0
2017-Nov-09 19:19N 34°37' E 135°23'0 0.0
2017-Nov-09 18:43N 34°37' E 135°23'0 0.0
2017-Nov-09 18:25N 34°38' E 135°23'0 0.0
2017-Nov-09 17:55N 34°38' E 135°23'4 8.5
2017-Nov-09 17:30N 34°37' E 135°19'611.8
2017-Nov-09 17:00N 34°36' E 135°12'612.0
2017-Nov-09 16:30N 34°35' E 135°04'710.1
2017-Nov-09 15:50N 34°37' E 134°56'4 0.1
2017-Nov-08 00:12N 34°37' E 135°02'314.8
2017-Nov-08 00:00N 34°36' E 135°04'  
Track history (hours):
 
Tides and Currents Weather Stations Pressure Air Temp Water Temp Dewpoint Dewpoint Depression Visibility Wind Speed Wind Dir Waves Ship Positions

Teruhou Maru No.22

Last reported at 2017-Nov-14 14:18 UTC. Time now 2017-Nov-20 21:28 UTC.
Position N 34°55' E 139°46'.

Length 76 m; draft 5 m.

Type: Cargo ship. MMSI: 431002552.

Date/timePositionNaut miles runAvg speedWind from/ knotsBaromVisibWave heightAir tempDewpointWater temp
2017-Nov-14 14:18N 34°55' E 139°46'311.9
2017-Nov-14 14:00N 34°58' E 139°44'713.1
2017-Nov-14 13:30N 35°04' E 139°45'713.6
2017-Nov-14 13:00N 35°11' E 139°46'612.6
2017-Nov-14 12:30N 35°18' E 139°45'612.3
2017-Nov-14 12:00N 35°23' E 139°43'712.7
2017-Nov-14 11:29N 35°28' E 139°48'6 0.2
2017-Nov-13 02:00N 35°27' E 139°41'0 0.0
2017-Nov-13 01:30N 35°27' E 139°41'0 0.0
2017-Nov-13 01:00N 35°27' E 139°41'0 0.0
2017-Nov-13 00:30N 35°27' E 139°41'0 0.0
2017-Nov-13 00:00N 35°27' E 139°41'0 0.0
2017-Nov-12 23:30N 35°27' E 139°41'0 0.0
2017-Nov-12 23:01N 35°27' E 139°41'1 2.4
2017-Nov-12 22:30N 35°27' E 139°42'0 1.0
2017-Nov-12 21:59N 35°26' E 139°42'0 0.0
2017-Nov-12 21:29N 35°26' E 139°42'0 0.0
2017-Nov-12 20:59N 35°26' E 139°42'0 0.0
2017-Nov-12 20:29N 35°26' E 139°42'0 0.0
2017-Nov-12 19:59N 35°26' E 139°42'0 0.0
2017-Nov-12 19:29N 35°26' E 139°42'0 0.0
2017-Nov-12 18:59N 35°26' E 139°42'0 0.0
2017-Nov-12 18:29N 35°26' E 139°42'0 0.0
2017-Nov-12 17:59N 35°26' E 139°42'0 0.0
2017-Nov-12 17:29N 35°26' E 139°42'0 0.0
2017-Nov-12 16:59N 35°26' E 139°42'0 0.0
2017-Nov-12 16:29N 35°26' E 139°42'0 0.0
2017-Nov-12 15:59N 35°26' E 139°42'0 0.0
2017-Nov-12 15:29N 35°26' E 139°42'0 0.0
2017-Nov-12 14:59N 35°26' E 139°42'0 0.0
2017-Nov-12 14:29N 35°27' E 139°42'0 0.1
2017-Nov-12 13:59N 35°27' E 139°42'0 0.1
2017-Nov-12 13:29N 35°27' E 139°42'2 4.2
2017-Nov-12 13:00N 35°25' E 139°43'611.9
2017-Nov-12 12:30N 35°19' E 139°44'611.4
2017-Nov-12 12:00N 35°13' E 139°47'611.6
2017-Nov-12 11:30N 35°08' E 139°44'611.8
2017-Nov-12 11:00N 35°04' E 139°40'237 9.8
2017-Nov-11 10:43N 34°07' E 135°00'312.9
2017-Nov-11 10:30N 34°10' E 134°60'1812.1
2017-Nov-11 09:01N 34°27' E 135°05'112.3
2017-Nov-11 08:57N 34°28' E 135°06'612.5
2017-Nov-11 08:30N 34°33' E 135°10'612.6
2017-Nov-11 08:00N 34°37' E 135°15'5 9.5
2017-Nov-11 07:30N 34°42' E 135°15'0 0.1
2017-Nov-11 07:00N 34°42' E 135°15'0 0.0
2017-Nov-11 06:30N 34°42' E 135°15'0 0.0
2017-Nov-11 06:00N 34°42' E 135°15'0 0.0
2017-Nov-11 05:30N 34°42' E 135°15'0 0.0
2017-Nov-11 04:51N 34°42' E 135°15'0 0.0
2017-Nov-11 04:21N 34°42' E 135°15'0 0.0
2017-Nov-11 03:45N 34°42' E 135°15'0 0.0
2017-Nov-11 03:21N 34°42' E 135°15'0 0.0
2017-Nov-11 02:57N 34°42' E 135°15'0 0.0
2017-Nov-11 02:27N 34°42' E 135°15'0 0.0
2017-Nov-11 01:57N 34°42' E 135°15'0 0.0
2017-Nov-11 01:27N 34°42' E 135°15'0 0.0
2017-Nov-11 00:57N 34°42' E 135°15'0 0.0
2017-Nov-11 00:27N 34°42' E 135°15'0 0.0
2017-Nov-10 23:57N 34°42' E 135°15'0 0.0
2017-Nov-10 23:21N 34°42' E 135°15'0 0.0
2017-Nov-10 22:57N 34°42' E 135°15'0 0.0
2017-Nov-10 22:27N 34°42' E 135°15'0 0.0
2017-Nov-10 21:57N 34°42' E 135°15'0 0.0
2017-Nov-10 21:27N 34°42' E 135°15'0 0.0
2017-Nov-10 20:57N 34°42' E 135°15'0 0.0
2017-Nov-10 20:27N 34°42' E 135°15'0 0.0
2017-Nov-10 19:51N 34°42' E 135°15'0 0.0
2017-Nov-10 19:27N 34°42' E 135°15'0 0.0
2017-Nov-10 18:57N 34°42' E 135°15'0 0.0
2017-Nov-10 18:27N 34°42' E 135°15'0 0.0
2017-Nov-10 17:57N 34°42' E 135°15'0 0.0
2017-Nov-10 17:27N 34°42' E 135°15'0 0.0
2017-Nov-10 16:57N 34°42' E 135°15'0 0.0
2017-Nov-10 16:27N 34°42' E 135°15'0 0.0
2017-Nov-10 15:57N 34°42' E 135°15'0 0.0
2017-Nov-10 15:27N 34°42' E 135°15'0 0.0
2017-Nov-10 14:57N 34°42' E 135°15'0 0.0
2017-Nov-10 14:27N 34°42' E 135°15'0 0.0
2017-Nov-10 13:57N 34°42' E 135°15'0 0.0
2017-Nov-10 13:21N 34°42' E 135°15'0 0.0
2017-Nov-10 12:57N 34°42' E 135°15'0 0.0
2017-Nov-10 12:27N 34°42' E 135°15'0 0.0
2017-Nov-10 11:57N 34°42' E 135°15'0 0.0
2017-Nov-10 11:27N 34°42' E 135°15'0 0.0
2017-Nov-10 10:57N 34°42' E 135°15'0 0.0
2017-Nov-10 10:15N 34°42' E 135°15'0 0.0
2017-Nov-10 09:57N 34°42' E 135°15'0 0.0
2017-Nov-10 09:27N 34°42' E 135°15'0 0.0
2017-Nov-10 08:51N 34°42' E 135°15'0 0.0
2017-Nov-10 08:21N 34°42' E 135°15'0 0.0
2017-Nov-10 07:57N 34°42' E 135°15'0 0.0
2017-Nov-10 07:27N 34°42' E 135°15'0 0.0
2017-Nov-10 06:57N 34°42' E 135°15'0 0.0
2017-Nov-10 06:27N 34°42' E 135°15'0 0.0
2017-Nov-10 05:51N 34°42' E 135°15'0 0.4
2017-Nov-10 05:30N 34°42' E 135°15'4 8.8
2017-Nov-10 05:00N 34°39' E 135°19'510.9
2017-Nov-10 04:30N 34°40' E 135°25'0 0.5
2017-Nov-10 03:59N 34°40' E 135°25'0 0.0
2017-Nov-10 03:30N 34°40' E 135°25'0 0.0
2017-Nov-10 03:00N 34°40' E 135°25'0 0.0
2017-Nov-10 02:30N 34°40' E 135°25'0 0.0
2017-Nov-10 02:00N 34°40' E 135°25'0 0.0
2017-Nov-10 01:30N 34°40' E 135°25'0 0.0
2017-Nov-10 01:00N 34°40' E 135°25'0 0.0
2017-Nov-10 00:30N 34°40' E 135°25'0 0.0
2017-Nov-10 00:00N 34°40' E 135°25'0 0.0
2017-Nov-09 23:30N 34°40' E 135°25'0 0.0
2017-Nov-09 23:00N 34°40' E 135°25'0 0.0
2017-Nov-09 22:30N 34°40' E 135°25'2 4.3
2017-Nov-09 22:00N 34°39' E 135°24'1 2.5
2017-Nov-09 21:25N 34°38' E 135°23'0 0.0
2017-Nov-09 20:55N 34°38' E 135°23'0 0.0
2017-Nov-09 20:07N 34°37' E 135°23'0 0.0
2017-Nov-09 19:43N 34°37' E 135°23'0 0.0
2017-Nov-09 19:19N 34°37' E 135°23'0 0.0
2017-Nov-09 18:43N 34°37' E 135°23'0 0.0
2017-Nov-09 18:25N 34°38' E 135°23'0 0.0
2017-Nov-09 17:55N 34°38' E 135°23'4 8.5
2017-Nov-09 17:30N 34°37' E 135°19'611.8
2017-Nov-09 17:00N 34°36' E 135°12'612.0
2017-Nov-09 16:30N 34°35' E 135°04'710.1
2017-Nov-09 15:50N 34°37' E 134°56'4 0.1
2017-Nov-08 00:12N 34°37' E 135°02'314.8
2017-Nov-08 00:00N 34°36' E 135°04'  

Dump ship's entire track history